sensor_id;sensor_type;location;lat;lon;timestamp;pressure;altitude;pressure_sealevel;temperature;humidity
56142;BME280;42018;48.588;10.836;2023-03-11T00:02:39;95584.00;;;2.50;61.44
56142;BME280;42018;48.588;10.836;2023-03-11T00:05:26;95586.31;;;2.46;62.64
56142;BME280;42018;48.588;10.836;2023-03-11T00:08:13;95576.38;;;2.48;62.45
56142;BME280;42018;48.588;10.836;2023-03-11T00:10:59;95587.56;;;2.44;62.00
56142;BME280;42018;48.588;10.836;2023-03-11T00:13:44;95578.03;;;2.32;61.63
56142;BME280;42018;48.588;10.836;2023-03-11T00:16:32;95584.22;;;2.48;61.66
56142;BME280;42018;48.588;10.836;2023-03-11T00:19:17;95589.94;;;2.45;61.14
56142;BME280;42018;48.588;10.836;2023-03-11T00:22:02;95602.03;;;2.29;62.44
56142;BME280;42018;48.588;10.836;2023-03-11T00:24:48;95606.16;;;2.25;59.84
56142;BME280;42018;48.588;10.836;2023-03-11T00:27:33;95602.09;;;2.34;60.73
56142;BME280;42018;48.588;10.836;2023-03-11T00:30:18;95607.31;;;2.34;59.94
56142;BME280;42018;48.588;10.836;2023-03-11T00:33:05;95600.59;;;2.38;60.64
56142;BME280;42018;48.588;10.836;2023-03-11T00:35:50;95610.00;;;2.39;61.40
56142;BME280;42018;48.588;10.836;2023-03-11T00:38:35;95618.31;;;2.36;60.82
56142;BME280;42018;48.588;10.836;2023-03-11T00:41:21;95629.88;;;2.40;60.70
56142;BME280;42018;48.588;10.836;2023-03-11T00:44:06;95620.47;;;2.39;61.37
56142;BME280;42018;48.588;10.836;2023-03-11T00:46:51;95612.22;;;2.31;61.58
56142;BME280;42018;48.588;10.836;2023-03-11T00:49:37;95614.78;;;2.26;61.87
56142;BME280;42018;48.588;10.836;2023-03-11T00:52:22;95612.34;;;2.02;62.73
56142;BME280;42018;48.588;10.836;2023-03-11T00:55:09;95623.25;;;2.16;62.48
56142;BME280;42018;48.588;10.836;2023-03-11T00:57:55;95625.72;;;2.06;62.81
56142;BME280;42018;48.588;10.836;2023-03-11T01:00:40;95622.56;;;2.04;63.21
56142;BME280;42018;48.588;10.836;2023-03-11T01:03:26;95607.66;;;2.21;61.42
56142;BME280;42018;48.588;10.836;2023-03-11T01:06:11;95602.81;;;2.13;62.36
56142;BME280;42018;48.588;10.836;2023-03-11T01:08:57;95605.94;;;2.10;62.74
56142;BME280;42018;48.588;10.836;2023-03-11T01:11:42;95608.31;;;1.95;62.79
56142;BME280;42018;48.588;10.836;2023-03-11T01:14:27;95608.72;;;2.03;62.65
56142;BME280;42018;48.588;10.836;2023-03-11T01:17:12;95615.94;;;1.96;62.64
56142;BME280;42018;48.588;10.836;2023-03-11T01:19:58;95603.56;;;1.91;62.79
56142;BME280;42018;48.588;10.836;2023-03-11T01:22:43;95629.00;;;1.96;63.20
56142;BME280;42018;48.588;10.836;2023-03-11T01:25:29;95627.72;;;1.82;62.49
56142;BME280;42018;48.588;10.836;2023-03-11T01:28:14;95620.28;;;1.90;62.45
56142;BME280;42018;48.588;10.836;2023-03-11T01:30:59;95616.84;;;1.73;62.06
56142;BME280;42018;48.588;10.836;2023-03-11T01:33:44;95610.47;;;1.64;62.04
56142;BME280;42018;48.588;10.836;2023-03-11T01:36:30;95608.16;;;1.67;61.88
56142;BME280;42018;48.588;10.836;2023-03-11T01:39:15;95620.09;;;1.80;61.65
56142;BME280;42018;48.588;10.836;2023-03-11T01:42:00;95612.00;;;1.48;61.55
56142;BME280;42018;48.588;10.836;2023-03-11T01:44:45;95605.72;;;1.61;61.44
56142;BME280;42018;48.588;10.836;2023-03-11T01:47:35;95611.16;;;1.42;62.04
56142;BME280;42018;48.588;10.836;2023-03-11T01:50:21;95626.25;;;1.40;61.54
56142;BME280;42018;48.588;10.836;2023-03-11T01:53:06;95612.81;;;1.49;61.31
56142;BME280;42018;48.588;10.836;2023-03-11T01:55:52;95635.09;;;1.56;61.57
56142;BME280;42018;48.588;10.836;2023-03-11T01:58:38;95620.72;;;1.54;61.91
56142;BME280;42018;48.588;10.836;2023-03-11T02:01:25;95628.63;;;1.59;61.20
56142;BME280;42018;48.588;10.836;2023-03-11T02:04:10;95639.66;;;1.32;61.32
56142;BME280;42018;48.588;10.836;2023-03-11T02:06:56;95635.56;;;1.36;61.52
56142;BME280;42018;48.588;10.836;2023-03-11T02:09:41;95640.50;;;1.50;62.08
56142;BME280;42018;48.588;10.836;2023-03-11T02:12:28;95648.88;;;1.52;60.96
56142;BME280;42018;48.588;10.836;2023-03-11T02:15:15;95629.09;;;1.56;61.16
56142;BME280;42018;48.588;10.836;2023-03-11T02:18:01;95632.34;;;1.63;60.73
56142;BME280;42018;48.588;10.836;2023-03-11T02:21:32;95623.59;;;1.69;59.81
56142;BME280;42018;48.588;10.836;2023-03-11T02:29:47;95613.75;;;1.42;61.09
56142;BME280;42018;48.588;10.836;2023-03-11T02:32:35;95613.84;;;1.48;61.82
56142;BME280;42018;48.588;10.836;2023-03-11T02:35:20;95621.91;;;1.46;62.11
56142;BME280;42018;48.588;10.836;2023-03-11T02:38:06;95622.22;;;1.50;62.69
56142;BME280;42018;48.588;10.836;2023-03-11T02:40:53;95631.63;;;1.51;62.29
56142;BME280;42018;48.588;10.836;2023-03-11T02:43:40;95633.69;;;1.49;63.58
56142;BME280;42018;48.588;10.836;2023-03-11T02:46:27;95642.28;;;1.49;63.40
56142;BME280;42018;48.588;10.836;2023-03-11T02:49:13;95636.84;;;1.51;62.75
56142;BME280;42018;48.588;10.836;2023-03-11T02:51:58;95648.47;;;1.60;63.39
56142;BME280;42018;48.588;10.836;2023-03-11T02:54:44;95645.41;;;1.63;63.43
56142;BME280;42018;48.588;10.836;2023-03-11T02:57:29;95660.09;;;1.35;63.96
56142;BME280;42018;48.588;10.836;2023-03-11T03:00:15;95661.06;;;1.63;63.79
56142;BME280;42018;48.588;10.836;2023-03-11T03:03:01;95661.75;;;1.41;63.30
56142;BME280;42018;48.588;10.836;2023-03-11T03:05:46;95658.34;;;1.41;63.78
56142;BME280;42018;48.588;10.836;2023-03-11T03:08:32;95663.34;;;1.42;63.63
56142;BME280;42018;48.588;10.836;2023-03-11T03:11:17;95666.28;;;1.46;63.86
56142;BME280;42018;48.588;10.836;2023-03-11T03:14:02;95668.81;;;1.58;64.02
56142;BME280;42018;48.588;10.836;2023-03-11T03:16:47;95679.00;;;1.42;64.93
56142;BME280;42018;48.588;10.836;2023-03-11T03:19:33;95687.97;;;1.35;67.10
56142;BME280;42018;48.588;10.836;2023-03-11T03:22:18;95686.13;;;1.18;66.29
56142;BME280;42018;48.588;10.836;2023-03-11T03:25:04;95688.28;;;1.10;63.20
56142;BME280;42018;48.588;10.836;2023-03-11T03:27:49;95703.94;;;1.10;63.60
56142;BME280;42018;48.588;10.836;2023-03-11T03:30:34;95711.09;;;1.03;62.22
56142;BME280;42018;48.588;10.836;2023-03-11T03:33:20;95723.00;;;0.99;61.72
56142;BME280;42018;48.588;10.836;2023-03-11T03:36:06;95715.53;;;0.90;61.27
56142;BME280;42018;48.588;10.836;2023-03-11T03:38:52;95714.47;;;1.15;60.60
56142;BME280;42018;48.588;10.836;2023-03-11T03:41:38;95704.13;;;1.20;60.19
56142;BME280;42018;48.588;10.836;2023-03-11T03:44:23;95720.94;;;1.12;60.14
56142;BME280;42018;48.588;10.836;2023-03-11T03:47:08;95719.28;;;0.94;59.76
56142;BME280;42018;48.588;10.836;2023-03-11T03:49:53;95732.09;;;0.84;59.66
56142;BME280;42018;48.588;10.836;2023-03-11T03:52:39;95740.94;;;0.83;58.96
56142;BME280;42018;48.588;10.836;2023-03-11T03:55:24;95743.56;;;0.83;59.87
56142;BME280;42018;48.588;10.836;2023-03-11T03:58:09;95742.31;;;0.74;59.44
56142;BME280;42018;48.588;10.836;2023-03-11T04:00:55;95740.94;;;0.83;59.58
56142;BME280;42018;48.588;10.836;2023-03-11T04:03:41;95739.91;;;0.84;58.78
56142;BME280;42018;48.588;10.836;2023-03-11T04:06:26;95738.00;;;0.68;58.83
56142;BME280;42018;48.588;10.836;2023-03-11T04:09:12;95742.75;;;0.59;59.03
56142;BME280;42018;48.588;10.836;2023-03-11T04:11:57;95753.28;;;0.88;58.83
56142;BME280;42018;48.588;10.836;2023-03-11T04:14:44;95745.59;;;0.69;58.39
56142;BME280;42018;48.588;10.836;2023-03-11T04:17:29;95750.56;;;0.71;58.57
56142;BME280;42018;48.588;10.836;2023-03-11T04:20:14;95761.91;;;0.77;58.66
56142;BME280;42018;48.588;10.836;2023-03-11T04:22:59;95756.13;;;0.86;57.17
56142;BME280;42018;48.588;10.836;2023-03-11T04:25:45;95758.06;;;0.79;57.96
56142;BME280;42018;48.588;10.836;2023-03-11T04:28:30;95763.84;;;0.58;58.16
56142;BME280;42018;48.588;10.836;2023-03-11T04:31:15;95765.78;;;0.62;57.87
56142;BME280;42018;48.588;10.836;2023-03-11T04:34:01;95770.19;;;0.62;58.69
56142;BME280;42018;48.588;10.836;2023-03-11T04:36:46;95771.22;;;0.73;57.87
56142;BME280;42018;48.588;10.836;2023-03-11T04:39:31;95779.16;;;0.66;58.34
56142;BME280;42018;48.588;10.836;2023-03-11T04:42:17;95791.50;;;0.59;58.17
56142;BME280;42018;48.588;10.836;2023-03-11T04:45:03;95786.28;;;0.59;58.72
56142;BME280;42018;48.588;10.836;2023-03-11T04:47:49;95789.47;;;0.61;59.65
56142;BME280;42018;48.588;10.836;2023-03-11T04:50:34;95794.09;;;0.47;59.91
56142;BME280;42018;48.588;10.836;2023-03-11T04:53:20;95802.25;;;0.51;59.92
56142;BME280;42018;48.588;10.836;2023-03-11T04:56:05;95795.56;;;0.55;58.88
56142;BME280;42018;48.588;10.836;2023-03-11T04:58:50;95803.81;;;0.40;59.30
56142;BME280;42018;48.588;10.836;2023-03-11T05:01:36;95811.75;;;0.45;58.79
56142;BME280;42018;48.588;10.836;2023-03-11T05:04:21;95812.19;;;0.42;59.14
56142;BME280;42018;48.588;10.836;2023-03-11T05:07:06;95807.91;;;0.36;59.04
56142;BME280;42018;48.588;10.836;2023-03-11T05:09:51;95820.44;;;0.27;58.98
56142;BME280;42018;48.588;10.836;2023-03-11T05:12:37;95819.72;;;0.20;58.93
56142;BME280;42018;48.588;10.836;2023-03-11T05:15:22;95820.66;;;0.26;60.06
56142;BME280;42018;48.588;10.836;2023-03-11T05:18:07;95828.91;;;0.22;59.44
56142;BME280;42018;48.588;10.836;2023-03-11T05:20:53;95823.28;;;0.37;59.31
56142;BME280;42018;48.588;10.836;2023-03-11T05:23:38;95830.81;;;0.15;60.01
56142;BME280;42018;48.588;10.836;2023-03-11T05:26:23;95842.97;;;0.21;59.93
56142;BME280;42018;48.588;10.836;2023-03-11T05:29:09;95846.81;;;0.19;60.36
56142;BME280;42018;48.588;10.836;2023-03-11T05:31:54;95851.00;;;0.20;59.75
56142;BME280;42018;48.588;10.836;2023-03-11T05:34:40;95851.44;;;0.17;59.91
56142;BME280;42018;48.588;10.836;2023-03-11T05:37:25;95846.91;;;0.24;60.61
56142;BME280;42018;48.588;10.836;2023-03-11T05:40:10;95855.19;;;0.21;60.11
56142;BME280;42018;48.588;10.836;2023-03-11T05:42:56;95852.28;;;0.29;59.81
56142;BME280;42018;48.588;10.836;2023-03-11T05:45:41;95850.28;;;0.13;60.89
56142;BME280;42018;48.588;10.836;2023-03-11T05:48:26;95850.72;;;0.10;59.87
56142;BME280;42018;48.588;10.836;2023-03-11T05:51:12;95851.22;;;0.18;60.18
56142;BME280;42018;48.588;10.836;2023-03-11T05:53:57;95855.84;;;0.16;59.77
56142;BME280;42018;48.588;10.836;2023-03-11T05:56:43;95856.53;;;0.12;59.90
56142;BME280;42018;48.588;10.836;2023-03-11T05:59:29;95852.97;;;0.06;60.49
56142;BME280;42018;48.588;10.836;2023-03-11T06:02:16;95864.09;;;0.13;59.88
56142;BME280;42018;48.588;10.836;2023-03-11T06:05:01;95862.44;;;0.19;60.12
56142;BME280;42018;48.588;10.836;2023-03-11T06:07:46;95865.47;;;0.16;60.60
56142;BME280;42018;48.588;10.836;2023-03-11T06:10:32;95869.38;;;0.25;59.81
56142;BME280;42018;48.588;10.836;2023-03-11T06:13:17;95858.13;;;0.24;60.07
56142;BME280;42018;48.588;10.836;2023-03-11T06:16:02;95862.28;;;0.44;60.21
56142;BME280;42018;48.588;10.836;2023-03-11T06:18:48;95859.34;;;0.52;59.75
56142;BME280;42018;48.588;10.836;2023-03-11T06:21:33;95863.75;;;0.40;59.80
56142;BME280;42018;48.588;10.836;2023-03-11T06:24:18;95864.19;;;0.37;60.26
56142;BME280;42018;48.588;10.836;2023-03-11T06:27:04;95865.50;;;0.28;60.51
56142;BME280;42018;48.588;10.836;2023-03-11T06:29:52;95860.78;;;0.36;60.11
56142;BME280;42018;48.588;10.836;2023-03-11T06:32:38;95868.69;;;0.30;60.22
56142;BME280;42018;48.588;10.836;2023-03-11T06:35:23;95866.19;;;0.23;60.05
56142;BME280;42018;48.588;10.836;2023-03-11T06:38:09;95867.50;;;0.44;60.44
56142;BME280;42018;48.588;10.836;2023-03-11T06:40:58;95860.78;;;0.36;60.82
56142;BME280;42018;48.588;10.836;2023-03-11T06:43:44;95868.97;;;0.40;60.59
56142;BME280;42018;48.588;10.836;2023-03-11T06:46:29;95871.47;;;0.46;60.05
56142;BME280;42018;48.588;10.836;2023-03-11T06:49:15;95882.63;;;0.35;60.78
56142;BME280;42018;48.588;10.836;2023-03-11T06:52:00;95893.47;;;0.20;61.13
56142;BME280;42018;48.588;10.836;2023-03-11T06:54:45;95901.03;;;0.40;61.74
56142;BME280;42018;48.588;10.836;2023-03-11T06:57:31;95900.63;;;0.67;60.83
56142;BME280;42018;48.588;10.836;2023-03-11T07:00:16;95907.47;;;0.68;60.06
56142;BME280;42018;48.588;10.836;2023-03-11T07:03:02;95911.38;;;0.59;60.34
56142;BME280;42018;48.588;10.836;2023-03-11T07:05:49;95916.94;;;0.62;60.23
56142;BME280;42018;48.588;10.836;2023-03-11T07:08:34;95922.47;;;0.54;60.25
56142;BME280;42018;48.588;10.836;2023-03-11T07:11:20;95913.88;;;0.54;61.14
56142;BME280;42018;48.588;10.836;2023-03-11T07:14:06;95924.75;;;0.62;61.35
56142;BME280;42018;48.588;10.836;2023-03-11T07:16:51;95932.94;;;0.66;61.52
56142;BME280;42018;48.588;10.836;2023-03-11T07:19:37;95935.72;;;0.83;60.76
56142;BME280;42018;48.588;10.836;2023-03-11T07:22:22;95940.78;;;0.78;61.03
56142;BME280;42018;48.588;10.836;2023-03-11T07:25:07;95947.59;;;0.79;60.66
56142;BME280;42018;48.588;10.836;2023-03-11T07:27:53;95950.13;;;0.55;61.32
56142;BME280;42018;48.588;10.836;2023-03-11T07:30:38;95953.56;;;0.67;61.23
56142;BME280;42018;48.588;10.836;2023-03-11T07:33:23;95958.59;;;0.81;61.45
56142;BME280;42018;48.588;10.836;2023-03-11T07:36:13;95963.72;;;0.87;60.57
56142;BME280;42018;48.588;10.836;2023-03-11T07:38:59;95967.53;;;0.73;61.77
56142;BME280;42018;48.588;10.836;2023-03-11T07:41:47;95970.78;;;0.99;61.60
56142;BME280;42018;48.588;10.836;2023-03-11T07:44:32;95973.03;;;0.95;61.49
56142;BME280;42018;48.588;10.836;2023-03-11T07:47:18;95972.41;;;1.11;61.11
56142;BME280;42018;48.588;10.836;2023-03-11T07:50:03;95976.56;;;1.01;60.92
56142;BME280;42018;48.588;10.836;2023-03-11T07:52:48;95977.03;;;1.09;61.03
56142;BME280;42018;48.588;10.836;2023-03-11T07:55:34;95979.63;;;1.09;60.50
56142;BME280;42018;48.588;10.836;2023-03-11T07:58:19;95982.38;;;1.14;60.60
56142;BME280;42018;48.588;10.836;2023-03-11T08:01:05;95980.03;;;1.36;59.47
56142;BME280;42018;48.588;10.836;2023-03-11T08:03:51;95993.88;;;1.25;59.13
56142;BME280;42018;48.588;10.836;2023-03-11T08:06:41;95994.81;;;1.54;59.73
56142;BME280;42018;48.588;10.836;2023-03-11T08:09:27;95996.72;;;1.59;58.62
56142;BME280;42018;48.588;10.836;2023-03-11T08:12:12;95997.06;;;1.51;58.92
56142;BME280;42018;48.588;10.836;2023-03-11T08:14:57;96001.84;;;1.54;58.44
56142;BME280;42018;48.588;10.836;2023-03-11T08:17:42;95997.53;;;1.83;59.57
56142;BME280;42018;48.588;10.836;2023-03-11T08:20:28;95991.03;;;2.09;58.61
56142;BME280;42018;48.588;10.836;2023-03-11T08:23:13;95987.25;;;2.28;57.74
56142;BME280;42018;48.588;10.836;2023-03-11T08:26:01;95986.78;;;2.20;57.34
56142;BME280;42018;48.588;10.836;2023-03-11T08:28:46;95985.75;;;2.32;57.19
56142;BME280;42018;48.588;10.836;2023-03-11T08:31:32;95996.50;;;2.48;57.31
56142;BME280;42018;48.588;10.836;2023-03-11T08:34:18;96004.84;;;2.33;56.75
56142;BME280;42018;48.588;10.836;2023-03-11T08:37:05;96013.09;;;2.42;56.18
56142;BME280;42018;48.588;10.836;2023-03-11T08:39:51;96008.53;;;2.60;55.97
56142;BME280;42018;48.588;10.836;2023-03-11T08:42:36;96015.59;;;2.60;55.49
56142;BME280;42018;48.588;10.836;2023-03-11T08:45:21;96010.53;;;2.70;55.61
56142;BME280;42018;48.588;10.836;2023-03-11T08:48:07;96021.22;;;2.69;55.74
56142;BME280;42018;48.588;10.836;2023-03-11T08:50:53;96013.44;;;2.57;54.85
56142;BME280;42018;48.588;10.836;2023-03-11T08:53:39;96025.50;;;2.46;56.40
56142;BME280;42018;48.588;10.836;2023-03-11T08:56:24;96036.19;;;2.45;54.98
56142;BME280;42018;48.588;10.836;2023-03-11T08:59:10;96033.06;;;2.71;55.29
56142;BME280;42018;48.588;10.836;2023-03-11T09:01:55;96036.97;;;2.85;54.25
56142;BME280;42018;48.588;10.836;2023-03-11T09:04:40;96030.50;;;2.48;55.92
56142;BME280;42018;48.588;10.836;2023-03-11T09:07:25;96037.22;;;2.44;56.23
56142;BME280;42018;48.588;10.836;2023-03-11T09:10:12;96039.03;;;2.43;55.87
56142;BME280;42018;48.588;10.836;2023-03-11T09:12:58;96038.97;;;2.67;55.15
56142;BME280;42018;48.588;10.836;2023-03-11T09:15:43;96029.53;;;2.66;55.13
56142;BME280;42018;48.588;10.836;2023-03-11T09:18:28;96029.41;;;2.72;54.66
56142;BME280;42018;48.588;10.836;2023-03-11T09:21:13;96032.97;;;2.54;55.67
56142;BME280;42018;48.588;10.836;2023-03-11T09:23:59;96039.25;;;2.42;55.26
56142;BME280;42018;48.588;10.836;2023-03-11T09:26:44;96036.47;;;2.72;53.97
56142;BME280;42018;48.588;10.836;2023-03-11T09:29:30;96032.38;;;3.21;53.97
56142;BME280;42018;48.588;10.836;2023-03-11T09:32:15;96027.00;;;3.78;51.90
56142;BME280;42018;48.588;10.836;2023-03-11T09:35:00;96026.75;;;3.97;51.88
56142;BME280;42018;48.588;10.836;2023-03-11T09:37:46;96038.34;;;3.33;52.18
56142;BME280;42018;48.588;10.836;2023-03-11T09:40:41;96032.81;;;3.01;53.56
56142;BME280;42018;48.588;10.836;2023-03-11T09:43:34;96037.97;;;3.13;52.99
56142;BME280;42018;48.588;10.836;2023-03-11T09:46:33;96042.09;;;3.54;52.59
56142;BME280;42018;48.588;10.836;2023-03-11T09:52:10;96035.41;;;4.58;50.86
56142;BME280;42018;48.588;10.836;2023-03-11T09:54:55;96040.00;;;4.46;50.46
56142;BME280;42018;48.588;10.836;2023-03-11T09:57:42;96046.66;;;4.15;50.61
56142;BME280;42018;48.588;10.836;2023-03-11T10:00:28;96051.78;;;3.71;51.12
56142;BME280;42018;48.588;10.836;2023-03-11T10:03:21;96055.16;;;3.38;52.64
56142;BME280;42018;48.588;10.836;2023-03-11T10:12:19;96066.75;;;3.25;51.51
56142;BME280;42018;48.588;10.836;2023-03-11T10:24:09;96077.72;;;3.10;53.27
56142;BME280;42018;48.588;10.836;2023-03-11T10:26:59;96073.19;;;3.05;52.69
56142;BME280;42018;48.588;10.836;2023-03-11T10:32:40;96079.00;;;3.53;52.35
56142;BME280;42018;48.588;10.836;2023-03-11T10:35:33;96081.53;;;3.48;51.27
56142;BME280;42018;48.588;10.836;2023-03-11T10:38:21;96091.75;;;3.32;50.50
56142;BME280;42018;48.588;10.836;2023-03-11T10:44:03;96088.72;;;3.41;51.98
56142;BME280;42018;48.588;10.836;2023-03-11T10:46:49;96091.81;;;3.38;51.79
56142;BME280;42018;48.588;10.836;2023-03-11T10:49:35;96087.81;;;3.47;50.86
56142;BME280;42018;48.588;10.836;2023-03-11T10:52:20;96086.06;;;3.52;51.17
56142;BME280;42018;48.588;10.836;2023-03-11T10:55:05;96092.56;;;3.50;51.13
56142;BME280;42018;48.588;10.836;2023-03-11T10:57:51;96087.41;;;3.55;51.23
56142;BME280;42018;48.588;10.836;2023-03-11T11:00:43;96083.03;;;3.44;48.95
56142;BME280;42018;48.588;10.836;2023-03-11T11:03:28;96080.09;;;3.40;48.60
56142;BME280;42018;48.588;10.836;2023-03-11T11:06:18;96079.38;;;3.45;50.44
56142;BME280;42018;48.588;10.836;2023-03-11T11:14:48;96083.50;;;3.41;49.34
56142;BME280;42018;48.588;10.836;2023-03-11T11:17:34;96086.53;;;3.66;50.33
56142;BME280;42018;48.588;10.836;2023-03-11T11:20:20;96077.84;;;3.77;48.92
56142;BME280;42018;48.588;10.836;2023-03-11T11:23:09;96087.41;;;4.05;48.82
56142;BME280;42018;48.588;10.836;2023-03-11T11:26:23;96084.31;;;4.08;49.44
56142;BME280;42018;48.588;10.836;2023-03-11T11:32:09;96076.97;;;3.89;48.37
56142;BME280;42018;48.588;10.836;2023-03-11T11:37:53;96066.44;;;4.44;47.62
56142;BME280;42018;48.588;10.836;2023-03-11T11:40:40;96070.63;;;4.62;47.69
56142;BME280;42018;48.588;10.836;2023-03-11T11:52:13;96062.94;;;4.55;47.43
56142;BME280;42018;48.588;10.836;2023-03-11T11:55:07;96074.28;;;4.61;45.70
56142;BME280;42018;48.588;10.836;2023-03-11T11:58:01;96074.41;;;4.71;46.19
56142;BME280;42018;48.588;10.836;2023-03-11T12:03:41;96066.59;;;4.54;46.62
56142;BME280;42018;48.588;10.836;2023-03-11T12:06:31;96072.28;;;4.68;46.45
56142;BME280;42018;48.588;10.836;2023-03-11T12:15:23;96072.53;;;4.45;47.24
56142;BME280;42018;48.588;10.836;2023-03-11T12:18:34;96070.72;;;4.28;47.26
56142;BME280;42018;48.588;10.836;2023-03-11T12:24:18;96072.25;;;4.07;47.86
56142;BME280;42018;48.588;10.836;2023-03-11T12:27:13;96058.41;;;4.12;47.52
56142;BME280;42018;48.588;10.836;2023-03-11T12:30:04;96062.38;;;4.31;48.07
56142;BME280;42018;48.588;10.836;2023-03-11T12:32:55;96060.84;;;4.36;48.08
56142;BME280;42018;48.588;10.836;2023-03-11T12:35:46;96063.72;;;4.34;48.30
56142;BME280;42018;48.588;10.836;2023-03-11T12:38:44;96058.06;;;4.42;47.58
56142;BME280;42018;48.588;10.836;2023-03-11T12:41:37;96055.53;;;4.30;48.36
56142;BME280;42018;48.588;10.836;2023-03-11T12:44:26;96046.06;;;4.29;47.76
56142;BME280;42018;48.588;10.836;2023-03-11T12:53:02;96037.53;;;4.17;47.70
56142;BME280;42018;48.588;10.836;2023-03-11T12:55:55;96042.00;;;4.39;47.23
56142;BME280;42018;48.588;10.836;2023-03-11T12:58:52;96042.81;;;4.61;46.45
56142;BME280;42018;48.588;10.836;2023-03-11T13:04:39;96038.69;;;4.92;45.49
56142;BME280;42018;48.588;10.836;2023-03-11T13:19:05;96048.06;;;5.10;44.82
56142;BME280;42018;48.588;10.836;2023-03-11T13:22:04;96046.50;;;5.09;44.92
56142;BME280;42018;48.588;10.836;2023-03-11T13:24:50;96054.69;;;4.91;44.61
56142;BME280;42018;48.588;10.836;2023-03-11T13:27:37;96056.31;;;4.97;45.06
56142;BME280;42018;48.588;10.836;2023-03-11T13:30:24;96052.72;;;5.03;45.41
56142;BME280;42018;48.588;10.836;2023-03-11T13:33:21;96058.81;;;5.09;45.47
56142;BME280;42018;48.588;10.836;2023-03-11T13:39:07;96064.44;;;5.17;44.56
56142;BME280;42018;48.588;10.836;2023-03-11T13:41:58;96061.81;;;5.17;43.53
56142;BME280;42018;48.588;10.836;2023-03-11T13:44:44;96064.81;;;5.04;45.43
56142;BME280;42018;48.588;10.836;2023-03-11T13:47:30;96060.06;;;5.28;44.57
56142;BME280;42018;48.588;10.836;2023-03-11T13:50:21;96057.53;;;5.11;44.26
56142;BME280;42018;48.588;10.836;2023-03-11T13:53:12;96057.09;;;5.79;43.77
56142;BME280;42018;48.588;10.836;2023-03-11T13:55:59;96057.06;;;6.53;43.07
56142;BME280;42018;48.588;10.836;2023-03-11T13:58:44;96056.38;;;6.26;43.67
56142;BME280;42018;48.588;10.836;2023-03-11T14:01:30;96058.13;;;6.10;43.24
56142;BME280;42018;48.588;10.836;2023-03-11T14:04:17;96065.75;;;6.06;43.22
56142;BME280;42018;48.588;10.836;2023-03-11T14:07:18;96056.00;;;6.54;42.59
56142;BME280;42018;48.588;10.836;2023-03-11T14:10:08;96053.56;;;7.00;42.25
56142;BME280;42018;48.588;10.836;2023-03-11T14:13:06;96059.38;;;7.02;41.00
56142;BME280;42018;48.588;10.836;2023-03-11T14:18:44;96071.00;;;6.06;41.52
56142;BME280;42018;48.588;10.836;2023-03-11T14:21:30;96073.56;;;6.33;41.62
56142;BME280;42018;48.588;10.836;2023-03-11T14:24:16;96072.97;;;6.74;40.70
56142;BME280;42018;48.588;10.836;2023-03-11T14:27:02;96078.19;;;6.68;39.49
56142;BME280;42018;48.588;10.836;2023-03-11T14:29:51;96076.00;;;6.50;42.27
56142;BME280;42018;48.588;10.836;2023-03-11T14:32:36;96084.34;;;6.89;40.83
56142;BME280;42018;48.588;10.836;2023-03-11T14:35:21;96071.25;;;7.05;40.65
56142;BME280;42018;48.588;10.836;2023-03-11T14:38:20;96082.94;;;6.71;41.57
56142;BME280;42018;48.588;10.836;2023-03-11T14:41:05;96076.78;;;5.76;42.38
56142;BME280;42018;48.588;10.836;2023-03-11T14:43:51;96077.25;;;6.00;43.61
56142;BME280;42018;48.588;10.836;2023-03-11T14:46:37;96079.41;;;6.45;42.98
56142;BME280;42018;48.588;10.836;2023-03-11T14:49:22;96083.66;;;6.14;41.33
56142;BME280;42018;48.588;10.836;2023-03-11T14:52:12;96079.97;;;5.78;43.09
56142;BME280;42018;48.588;10.836;2023-03-11T14:54:59;96084.50;;;5.28;42.59
56142;BME280;42018;48.588;10.836;2023-03-11T14:57:45;96073.94;;;5.23;44.28
56142;BME280;42018;48.588;10.836;2023-03-11T15:00:48;96075.78;;;5.82;42.86
56142;BME280;42018;48.588;10.836;2023-03-11T15:03:35;96080.56;;;6.22;41.91
56142;BME280;42018;48.588;10.836;2023-03-11T15:06:22;96074.56;;;6.32;40.96
56142;BME280;42018;48.588;10.836;2023-03-11T15:09:15;96082.84;;;6.09;41.69
56142;BME280;42018;48.588;10.836;2023-03-11T15:12:02;96090.66;;;6.36;42.43
56142;BME280;42018;48.588;10.836;2023-03-11T15:14:49;96095.81;;;5.88;42.89
56142;BME280;42018;48.588;10.836;2023-03-11T15:17:37;96095.31;;;5.59;42.85
56142;BME280;42018;48.588;10.836;2023-03-11T15:23:17;96095.75;;;5.24;44.73
56142;BME280;42018;48.588;10.836;2023-03-11T15:26:04;96095.44;;;5.47;44.02
56142;BME280;42018;48.588;10.836;2023-03-11T15:28:55;96094.66;;;5.47;43.88
56142;BME280;42018;48.588;10.836;2023-03-11T15:31:41;96086.53;;;5.21;44.13
56142;BME280;42018;48.588;10.836;2023-03-11T15:34:32;96082.88;;;5.00;44.12
56142;BME280;42018;48.588;10.836;2023-03-11T15:37:19;96089.03;;;5.11;44.81
56142;BME280;42018;48.588;10.836;2023-03-11T15:40:16;96090.22;;;4.76;45.32
56142;BME280;42018;48.588;10.836;2023-03-11T15:45:59;96088.06;;;4.51;45.32
56142;BME280;42018;48.588;10.836;2023-03-11T15:48:46;96098.03;;;4.32;45.42
56142;BME280;42018;48.588;10.836;2023-03-11T15:51:31;96100.16;;;4.52;45.69
56142;BME280;42018;48.588;10.836;2023-03-11T15:54:16;96094.22;;;4.62;45.23
56142;BME280;42018;48.588;10.836;2023-03-11T15:57:03;96101.00;;;4.58;45.24
56142;BME280;42018;48.588;10.836;2023-03-11T15:59:50;96098.31;;;4.53;46.30
56142;BME280;42018;48.588;10.836;2023-03-11T16:02:35;96097.84;;;4.56;46.10
56142;BME280;42018;48.588;10.836;2023-03-11T16:05:22;96092.47;;;4.46;46.66
56142;BME280;42018;48.588;10.836;2023-03-11T16:08:07;96091.75;;;4.33;45.61
56142;BME280;42018;48.588;10.836;2023-03-11T16:10:53;96098.34;;;4.36;47.03
56142;BME280;42018;48.588;10.836;2023-03-11T16:13:38;96096.81;;;4.40;47.96
56142;BME280;42018;48.588;10.836;2023-03-11T16:16:23;96112.59;;;4.23;48.16
56142;BME280;42018;48.588;10.836;2023-03-11T16:19:09;96125.16;;;4.21;46.86